sensor_id;sensor_type;location;lat;lon;timestamp;temperature;humidity
3262;DHT22;1643;47.746;9.000;2024-02-26T00:02:15;8.00;99.90
3262;DHT22;1643;47.746;9.000;2024-02-26T00:04:41;8.10;99.90
3262;DHT22;1643;47.746;9.000;2024-02-26T00:07:06;8.00;99.90
3262;DHT22;1643;47.746;9.000;2024-02-26T00:09:32;8.00;99.90
3262;DHT22;1643;47.746;9.000;2024-02-26T00:12:04;8.00;99.90
3262;DHT22;1643;47.746;9.000;2024-02-26T00:14:30;8.00;99.90
3262;DHT22;1643;47.746;9.000;2024-02-26T00:16:56;8.00;99.90
3262;DHT22;1643;47.746;9.000;2024-02-26T00:19:22;8.00;99.90
3262;DHT22;1643;47.746;9.000;2024-02-26T00:21:47;7.90;99.90
3262;DHT22;1643;47.746;9.000;2024-02-26T00:24:13;7.90;99.90
3262;DHT22;1643;47.746;9.000;2024-02-26T00:26:39;8.00;99.90
3262;DHT22;1643;47.746;9.000;2024-02-26T00:29:05;8.00;99.90
3262;DHT22;1643;47.746;9.000;2024-02-26T00:31:31;8.00;99.90
3262;DHT22;1643;47.746;9.000;2024-02-26T00:33:56;7.90;99.90
3262;DHT22;1643;47.746;9.000;2024-02-26T00:36:22;7.90;99.90
3262;DHT22;1643;47.746;9.000;2024-02-26T00:38:48;7.80;99.90
3262;DHT22;1643;47.746;9.000;2024-02-26T00:41:19;7.70;99.90
3262;DHT22;1643;47.746;9.000;2024-02-26T00:43:46;7.60;99.90
3262;DHT22;1643;47.746;9.000;2024-02-26T00:46:12;7.70;99.90
3262;DHT22;1643;47.746;9.000;2024-02-26T00:48:37;7.70;99.90
3262;DHT22;1643;47.746;9.000;2024-02-26T00:51:03;7.80;99.90
3262;DHT22;1643;47.746;9.000;2024-02-26T00:53:33;7.70;99.90
3262;DHT22;1643;47.746;9.000;2024-02-26T00:55:59;7.80;99.90
3262;DHT22;1643;47.746;9.000;2024-02-26T00:58:25;7.80;99.90
3262;DHT22;1643;47.746;9.000;2024-02-26T01:00:51;7.80;99.90
3262;DHT22;1643;47.746;9.000;2024-02-26T01:03:20;7.90;99.90
3262;DHT22;1643;47.746;9.000;2024-02-26T01:05:46;7.90;99.90
3262;DHT22;1643;47.746;9.000;2024-02-26T01:08:11;7.80;99.90
3262;DHT22;1643;47.746;9.000;2024-02-26T01:10:37;7.90;99.90
3262;DHT22;1643;47.746;9.000;2024-02-26T01:13:03;7.90;99.90
3262;DHT22;1643;47.746;9.000;2024-02-26T01:15:28;7.90;99.90
3262;DHT22;1643;47.746;9.000;2024-02-26T01:17:54;7.80;99.90
3262;DHT22;1643;47.746;9.000;2024-02-26T01:20:20;7.80;99.90
3262;DHT22;1643;47.746;9.000;2024-02-26T01:22:46;7.80;99.90
3262;DHT22;1643;47.746;9.000;2024-02-26T01:25:12;7.90;99.90
3262;DHT22;1643;47.746;9.000;2024-02-26T01:27:38;7.90;99.90
3262;DHT22;1643;47.746;9.000;2024-02-26T01:30:04;7.90;99.90
3262;DHT22;1643;47.746;9.000;2024-02-26T01:32:30;7.90;99.90
3262;DHT22;1643;47.746;9.000;2024-02-26T01:34:56;7.80;99.90
3262;DHT22;1643;47.746;9.000;2024-02-26T01:37:22;7.70;99.90
3262;DHT22;1643;47.746;9.000;2024-02-26T01:39:48;7.60;99.90
3262;DHT22;1643;47.746;9.000;2024-02-26T01:42:13;7.50;99.90
3262;DHT22;1643;47.746;9.000;2024-02-26T01:44:39;7.50;99.90
3262;DHT22;1643;47.746;9.000;2024-02-26T01:47:11;7.40;99.90
3262;DHT22;1643;47.746;9.000;2024-02-26T01:49:37;7.40;99.90
3262;DHT22;1643;47.746;9.000;2024-02-26T01:52:04;7.30;99.90
3262;DHT22;1643;47.746;9.000;2024-02-26T01:54:31;7.40;99.90
3262;DHT22;1643;47.746;9.000;2024-02-26T01:56:57;7.50;99.90
3262;DHT22;1643;47.746;9.000;2024-02-26T01:59:23;7.60;99.90
3262;DHT22;1643;47.746;9.000;2024-02-26T02:01:54;7.60;99.90
3262;DHT22;1643;47.746;9.000;2024-02-26T02:04:21;7.60;99.90
3262;DHT22;1643;47.746;9.000;2024-02-26T02:06:48;7.60;99.90
3262;DHT22;1643;47.746;9.000;2024-02-26T02:09:14;7.50;99.90
3262;DHT22;1643;47.746;9.000;2024-02-26T02:11:40;7.50;99.90
3262;DHT22;1643;47.746;9.000;2024-02-26T02:14:06;7.60;99.90
3262;DHT22;1643;47.746;9.000;2024-02-26T02:16:31;7.60;99.90
3262;DHT22;1643;47.746;9.000;2024-02-26T02:18:58;7.60;99.90
3262;DHT22;1643;47.746;9.000;2024-02-26T02:21:24;7.50;99.90
3262;DHT22;1643;47.746;9.000;2024-02-26T02:23:50;7.50;99.90
3262;DHT22;1643;47.746;9.000;2024-02-26T02:26:16;7.50;99.90
3262;DHT22;1643;47.746;9.000;2024-02-26T02:28:41;7.60;99.90
3262;DHT22;1643;47.746;9.000;2024-02-26T02:31:07;7.60;99.90
3262;DHT22;1643;47.746;9.000;2024-02-26T02:33:34;7.70;99.90
3262;DHT22;1643;47.746;9.000;2024-02-26T02:36:00;7.70;99.90
3262;DHT22;1643;47.746;9.000;2024-02-26T02:38:26;7.70;99.90
3262;DHT22;1643;47.746;9.000;2024-02-26T02:40:52;7.70;99.90
3262;DHT22;1643;47.746;9.000;2024-02-26T02:43:17;7.80;99.90
3262;DHT22;1643;47.746;9.000;2024-02-26T02:45:43;7.70;99.90
3262;DHT22;1643;47.746;9.000;2024-02-26T02:48:09;7.80;99.90
3262;DHT22;1643;47.746;9.000;2024-02-26T02:50:35;7.70;99.90
3262;DHT22;1643;47.746;9.000;2024-02-26T02:53:01;7.70;99.90
3262;DHT22;1643;47.746;9.000;2024-02-26T02:55:27;7.70;99.90
3262;DHT22;1643;47.746;9.000;2024-02-26T02:57:53;7.80;99.90
3262;DHT22;1643;47.746;9.000;2024-02-26T03:00:19;7.80;99.90
3262;DHT22;1643;47.746;9.000;2024-02-26T03:02:45;7.70;99.90
3262;DHT22;1643;47.746;9.000;2024-02-26T03:05:11;7.70;99.90
3262;DHT22;1643;47.746;9.000;2024-02-26T03:07:37;7.70;99.90
3262;DHT22;1643;47.746;9.000;2024-02-26T03:10:03;7.80;99.90
3262;DHT22;1643;47.746;9.000;2024-02-26T03:12:30;7.80;99.90
3262;DHT22;1643;47.746;9.000;2024-02-26T03:14:55;7.80;99.90
3262;DHT22;1643;47.746;9.000;2024-02-26T03:17:21;7.80;99.90
3262;DHT22;1643;47.746;9.000;2024-02-26T03:19:47;7.70;99.90
3262;DHT22;1643;47.746;9.000;2024-02-26T03:22:13;7.70;99.90
3262;DHT22;1643;47.746;9.000;2024-02-26T03:24:39;7.80;99.90
3262;DHT22;1643;47.746;9.000;2024-02-26T03:27:04;7.70;99.90
3262;DHT22;1643;47.746;9.000;2024-02-26T03:29:38;7.70;99.90
3262;DHT22;1643;47.746;9.000;2024-02-26T03:32:04;7.70;99.90
3262;DHT22;1643;47.746;9.000;2024-02-26T03:34:30;7.70;99.90
3262;DHT22;1643;47.746;9.000;2024-02-26T03:36:56;7.70;99.90
3262;DHT22;1643;47.746;9.000;2024-02-26T03:39:22;7.70;99.90
3262;DHT22;1643;47.746;9.000;2024-02-26T03:41:48;7.70;99.90
3262;DHT22;1643;47.746;9.000;2024-02-26T03:44:14;7.70;99.90
3262;DHT22;1643;47.746;9.000;2024-02-26T03:46:40;7.70;99.90
3262;DHT22;1643;47.746;9.000;2024-02-26T03:49:08;7.70;99.90
3262;DHT22;1643;47.746;9.000;2024-02-26T03:51:34;7.70;99.90
3262;DHT22;1643;47.746;9.000;2024-02-26T03:53:59;7.70;99.90
3262;DHT22;1643;47.746;9.000;2024-02-26T03:56:26;7.70;99.90
3262;DHT22;1643;47.746;9.000;2024-02-26T03:58:52;7.70;99.90
3262;DHT22;1643;47.746;9.000;2024-02-26T04:01:17;7.60;99.90
3262;DHT22;1643;47.746;9.000;2024-02-26T04:03:43;7.50;99.90
3262;DHT22;1643;47.746;9.000;2024-02-26T04:06:09;7.50;99.90
3262;DHT22;1643;47.746;9.000;2024-02-26T04:08:43;7.60;99.90
3262;DHT22;1643;47.746;9.000;2024-02-26T04:11:09;7.60;99.90
3262;DHT22;1643;47.746;9.000;2024-02-26T04:13:35;7.60;99.90
3262;DHT22;1643;47.746;9.000;2024-02-26T04:16:01;7.50;99.90
3262;DHT22;1643;47.746;9.000;2024-02-26T04:18:29;7.50;99.90
3262;DHT22;1643;47.746;9.000;2024-02-26T04:20:55;7.60;99.90
3262;DHT22;1643;47.746;9.000;2024-02-26T04:23:22;7.40;99.90
3262;DHT22;1643;47.746;9.000;2024-02-26T04:25:48;7.40;99.90
3262;DHT22;1643;47.746;9.000;2024-02-26T04:28:13;7.40;99.90
3262;DHT22;1643;47.746;9.000;2024-02-26T04:30:40;7.50;99.90
3262;DHT22;1643;47.746;9.000;2024-02-26T04:33:06;7.50;99.90
3262;DHT22;1643;47.746;9.000;2024-02-26T04:35:31;7.50;99.90
3262;DHT22;1643;47.746;9.000;2024-02-26T04:37:57;7.50;99.90
3262;DHT22;1643;47.746;9.000;2024-02-26T04:40:23;7.50;99.90
3262;DHT22;1643;47.746;9.000;2024-02-26T04:42:49;7.50;99.90
3262;DHT22;1643;47.746;9.000;2024-02-26T04:45:15;7.50;99.90
3262;DHT22;1643;47.746;9.000;2024-02-26T04:47:40;7.40;99.90
3262;DHT22;1643;47.746;9.000;2024-02-26T04:50:06;7.30;99.90
3262;DHT22;1643;47.746;9.000;2024-02-26T04:52:32;7.40;99.90
3262;DHT22;1643;47.746;9.000;2024-02-26T04:54:58;7.40;99.90
3262;DHT22;1643;47.746;9.000;2024-02-26T04:57:25;7.40;99.90
3262;DHT22;1643;47.746;9.000;2024-02-26T04:59:51;7.50;99.90
3262;DHT22;1643;47.746;9.000;2024-02-26T05:02:17;7.50;99.90
3262;DHT22;1643;47.746;9.000;2024-02-26T05:04:43;7.50;99.90
3262;DHT22;1643;47.746;9.000;2024-02-26T05:07:08;7.50;99.90
3262;DHT22;1643;47.746;9.000;2024-02-26T05:09:34;7.50;99.90
3262;DHT22;1643;47.746;9.000;2024-02-26T05:12:00;7.60;99.90
3262;DHT22;1643;47.746;9.000;2024-02-26T05:14:26;7.60;99.90
3262;DHT22;1643;47.746;9.000;2024-02-26T05:16:51;7.60;99.90
3262;DHT22;1643;47.746;9.000;2024-02-26T05:19:17;7.70;99.90
3262;DHT22;1643;47.746;9.000;2024-02-26T05:21:42;7.70;99.90
3262;DHT22;1643;47.746;9.000;2024-02-26T05:24:09;7.70;99.90
3262;DHT22;1643;47.746;9.000;2024-02-26T05:26:35;7.80;99.90
3262;DHT22;1643;47.746;9.000;2024-02-26T05:29:01;7.80;99.90
3262;DHT22;1643;47.746;9.000;2024-02-26T05:31:27;7.80;99.90
3262;DHT22;1643;47.746;9.000;2024-02-26T05:33:52;7.80;99.90
3262;DHT22;1643;47.746;9.000;2024-02-26T05:36:20;7.70;99.90
3262;DHT22;1643;47.746;9.000;2024-02-26T05:38:46;7.70;99.90
3262;DHT22;1643;47.746;9.000;2024-02-26T05:41:12;7.60;99.90
3262;DHT22;1643;47.746;9.000;2024-02-26T05:43:37;7.60;99.90
3262;DHT22;1643;47.746;9.000;2024-02-26T05:46:03;7.70;99.90
3262;DHT22;1643;47.746;9.000;2024-02-26T05:48:29;7.80;99.90
3262;DHT22;1643;47.746;9.000;2024-02-26T05:50:54;7.80;99.90
3262;DHT22;1643;47.746;9.000;2024-02-26T05:53:20;7.80;99.90
3262;DHT22;1643;47.746;9.000;2024-02-26T05:55:46;7.80;99.90
3262;DHT22;1643;47.746;9.000;2024-02-26T05:58:12;7.90;99.90
3262;DHT22;1643;47.746;9.000;2024-02-26T06:00:37;7.90;99.90
3262;DHT22;1643;47.746;9.000;2024-02-26T06:03:03;7.90;99.90
3262;DHT22;1643;47.746;9.000;2024-02-26T06:05:29;7.80;99.90
3262;DHT22;1643;47.746;9.000;2024-02-26T06:07:54;7.80;99.90
3262;DHT22;1643;47.746;9.000;2024-02-26T06:10:20;7.70;99.90
3262;DHT22;1643;47.746;9.000;2024-02-26T06:12:47;7.70;99.90
3262;DHT22;1643;47.746;9.000;2024-02-26T06:15:12;7.80;99.90
3262;DHT22;1643;47.746;9.000;2024-02-26T06:17:38;7.80;99.90
3262;DHT22;1643;47.746;9.000;2024-02-26T06:20:04;7.70;99.90
3262;DHT22;1643;47.746;9.000;2024-02-26T06:22:31;7.70;99.90
3262;DHT22;1643;47.746;9.000;2024-02-26T06:24:57;7.80;99.90
3262;DHT22;1643;47.746;9.000;2024-02-26T06:27:23;7.70;99.90
3262;DHT22;1643;47.746;9.000;2024-02-26T06:29:49;7.70;99.90
3262;DHT22;1643;47.746;9.000;2024-02-26T06:32:15;7.80;99.90
3262;DHT22;1643;47.746;9.000;2024-02-26T06:34:40;7.70;99.90
3262;DHT22;1643;47.746;9.000;2024-02-26T06:37:08;7.80;99.90
3262;DHT22;1643;47.746;9.000;2024-02-26T06:39:33;7.80;99.90
3262;DHT22;1643;47.746;9.000;2024-02-26T06:41:59;7.80;99.90
3262;DHT22;1643;47.746;9.000;2024-02-26T06:44:27;7.80;99.90
3262;DHT22;1643;47.746;9.000;2024-02-26T06:46:58;7.80;99.90
3262;DHT22;1643;47.746;9.000;2024-02-26T06:49:24;7.80;99.90
3262;DHT22;1643;47.746;9.000;2024-02-26T06:51:50;7.80;99.90
3262;DHT22;1643;47.746;9.000;2024-02-26T06:54:15;7.90;99.90
3262;DHT22;1643;47.746;9.000;2024-02-26T06:56:41;7.90;99.90
3262;DHT22;1643;47.746;9.000;2024-02-26T06:59:07;7.90;99.90
3262;DHT22;1643;47.746;9.000;2024-02-26T07:01:32;8.00;99.90
3262;DHT22;1643;47.746;9.000;2024-02-26T07:03:58;8.00;99.90
3262;DHT22;1643;47.746;9.000;2024-02-26T07:06:23;8.10;99.90
3262;DHT22;1643;47.746;9.000;2024-02-26T07:08:49;8.20;99.90
3262;DHT22;1643;47.746;9.000;2024-02-26T07:11:15;8.20;99.90
3262;DHT22;1643;47.746;9.000;2024-02-26T07:13:40;8.30;99.90
3262;DHT22;1643;47.746;9.000;2024-02-26T07:16:07;8.40;99.90
3262;DHT22;1643;47.746;9.000;2024-02-26T07:18:34;8.40;99.90
3262;DHT22;1643;47.746;9.000;2024-02-26T07:21:02;8.40;99.90
3262;DHT22;1643;47.746;9.000;2024-02-26T07:23:28;8.40;99.90
3262;DHT22;1643;47.746;9.000;2024-02-26T07:25:53;8.40;99.90
3262;DHT22;1643;47.746;9.000;2024-02-26T07:28:19;8.40;99.90
3262;DHT22;1643;47.746;9.000;2024-02-26T07:30:45;8.40;99.90
3262;DHT22;1643;47.746;9.000;2024-02-26T07:33:10;8.40;99.90
3262;DHT22;1643;47.746;9.000;2024-02-26T07:35:36;8.40;99.90
3262;DHT22;1643;47.746;9.000;2024-02-26T07:38:04;8.40;99.90
3262;DHT22;1643;47.746;9.000;2024-02-26T07:40:30;8.40;99.90
3262;DHT22;1643;47.746;9.000;2024-02-26T07:42:56;8.40;99.90
3262;DHT22;1643;47.746;9.000;2024-02-26T07:45:22;8.40;99.90
3262;DHT22;1643;47.746;9.000;2024-02-26T07:47:47;8.50;99.90
3262;DHT22;1643;47.746;9.000;2024-02-26T07:50:13;8.40;99.90
3262;DHT22;1643;47.746;9.000;2024-02-26T07:52:39;8.50;99.90
3262;DHT22;1643;47.746;9.000;2024-02-26T07:55:05;8.50;99.90
3262;DHT22;1643;47.746;9.000;2024-02-26T07:57:33;8.40;99.90
3262;DHT22;1643;47.746;9.000;2024-02-26T08:00:04;8.40;99.90
3262;DHT22;1643;47.746;9.000;2024-02-26T08:02:34;8.50;99.90
3262;DHT22;1643;47.746;9.000;2024-02-26T08:05:00;8.40;99.90
3262;DHT22;1643;47.746;9.000;2024-02-26T08:07:25;8.40;99.90
3262;DHT22;1643;47.746;9.000;2024-02-26T08:09:51;8.50;99.90
3262;DHT22;1643;47.746;9.000;2024-02-26T08:12:17;8.50;99.90
3262;DHT22;1643;47.746;9.000;2024-02-26T08:14:43;8.50;99.90
3262;DHT22;1643;47.746;9.000;2024-02-26T08:17:09;8.70;99.90
3262;DHT22;1643;47.746;9.000;2024-02-26T08:19:35;8.80;99.90
3262;DHT22;1643;47.746;9.000;2024-02-26T08:22:01;9.00;99.90
3262;DHT22;1643;47.746;9.000;2024-02-26T08:24:27;9.10;99.90
3262;DHT22;1643;47.746;9.000;2024-02-26T08:26:53;9.10;99.90
3262;DHT22;1643;47.746;9.000;2024-02-26T08:29:19;9.20;99.90
3262;DHT22;1643;47.746;9.000;2024-02-26T08:31:45;9.30;99.90
3262;DHT22;1643;47.746;9.000;2024-02-26T08:34:10;9.30;99.90
3262;DHT22;1643;47.746;9.000;2024-02-26T08:36:36;9.40;99.90
3262;DHT22;1643;47.746;9.000;2024-02-26T08:39:02;9.50;99.90
3262;DHT22;1643;47.746;9.000;2024-02-26T08:41:28;9.50;99.90
3262;DHT22;1643;47.746;9.000;2024-02-26T08:43:53;9.50;99.90
3262;DHT22;1643;47.746;9.000;2024-02-26T08:46:20;9.60;99.90
3262;DHT22;1643;47.746;9.000;2024-02-26T08:48:46;9.80;99.90
3262;DHT22;1643;47.746;9.000;2024-02-26T08:51:12;9.90;99.90
3262;DHT22;1643;47.746;9.000;2024-02-26T08:53:39;9.90;99.90
3262;DHT22;1643;47.746;9.000;2024-02-26T08:56:05;10.10;99.90
3262;DHT22;1643;47.746;9.000;2024-02-26T08:58:31;10.20;99.90
3262;DHT22;1643;47.746;9.000;2024-02-26T09:00:56;10.30;99.90
3262;DHT22;1643;47.746;9.000;2024-02-26T09:03:22;10.30;99.90
3262;DHT22;1643;47.746;9.000;2024-02-26T09:05:48;10.10;99.90
3262;DHT22;1643;47.746;9.000;2024-02-26T09:08:14;10.20;99.90
3262;DHT22;1643;47.746;9.000;2024-02-26T09:10:40;10.30;99.90
3262;DHT22;1643;47.746;9.000;2024-02-26T09:13:06;10.40;99.90
3262;DHT22;1643;47.746;9.000;2024-02-26T09:15:32;10.50;99.90
3262;DHT22;1643;47.746;9.000;2024-02-26T09:17:57;10.60;99.80
3262;DHT22;1643;47.746;9.000;2024-02-26T09:20:23;10.70;99.60
3262;DHT22;1643;47.746;9.000;2024-02-26T09:22:49;10.80;99.60
3262;DHT22;1643;47.746;9.000;2024-02-26T09:25:16;11.10;99.40
3262;DHT22;1643;47.746;9.000;2024-02-26T09:27:43;11.30;99.30
3262;DHT22;1643;47.746;9.000;2024-02-26T09:30:10;11.20;98.90
3262;DHT22;1643;47.746;9.000;2024-02-26T09:32:37;11.20;98.90
3262;DHT22;1643;47.746;9.000;2024-02-26T09:35:02;11.40;99.00
3262;DHT22;1643;47.746;9.000;2024-02-26T09:37:28;11.40;98.70
3262;DHT22;1643;47.746;9.000;2024-02-26T09:39:54;11.40;98.70
3262;DHT22;1643;47.746;9.000;2024-02-26T09:42:20;11.30;98.90
3262;DHT22;1643;47.746;9.000;2024-02-26T09:44:46;11.10;98.40
3262;DHT22;1643;47.746;9.000;2024-02-26T09:47:14;11.00;98.10
3262;DHT22;1643;47.746;9.000;2024-02-26T09:49:43;11.10;97.90
3262;DHT22;1643;47.746;9.000;2024-02-26T09:52:08;11.10;98.00
3262;DHT22;1643;47.746;9.000;2024-02-26T09:54:35;11.20;98.00
3262;DHT22;1643;47.746;9.000;2024-02-26T09:57:03;11.10;98.10
3262;DHT22;1643;47.746;9.000;2024-02-26T09:59:39;10.90;98.10
3262;DHT22;1643;47.746;9.000;2024-02-26T10:02:09;10.90;98.10
3262;DHT22;1643;47.746;9.000;2024-02-26T10:04:36;10.90;98.20
3262;DHT22;1643;47.746;9.000;2024-02-26T10:07:04;10.90;98.20
3262;DHT22;1643;47.746;9.000;2024-02-26T10:09:32;10.90;98.20
3262;DHT22;1643;47.746;9.000;2024-02-26T10:11:57;10.80;98.20
3262;DHT22;1643;47.746;9.000;2024-02-26T10:14:24;10.80;98.10
3262;DHT22;1643;47.746;9.000;2024-02-26T10:16:51;10.80;98.00
3262;DHT22;1643;47.746;9.000;2024-02-26T10:19:27;10.80;98.00
3262;DHT22;1643;47.746;9.000;2024-02-26T10:21:56;10.80;98.00
3262;DHT22;1643;47.746;9.000;2024-02-26T10:24:23;10.90;98.10
3262;DHT22;1643;47.746;9.000;2024-02-26T10:26:51;10.90;98.10
3262;DHT22;1643;47.746;9.000;2024-02-26T10:29:18;11.00;98.10
3262;DHT22;1643;47.746;9.000;2024-02-26T10:31:44;10.90;98.00
3262;DHT22;1643;47.746;9.000;2024-02-26T10:34:10;10.80;98.00
3262;DHT22;1643;47.746;9.000;2024-02-26T10:36:36;10.70;98.00
3262;DHT22;1643;47.746;9.000;2024-02-26T10:39:05;10.70;98.10
3262;DHT22;1643;47.746;9.000;2024-02-26T10:41:33;10.70;98.10
3262;DHT22;1643;47.746;9.000;2024-02-26T10:43:58;10.70;98.00
3262;DHT22;1643;47.746;9.000;2024-02-26T10:46:25;10.50;97.90
3262;DHT22;1643;47.746;9.000;2024-02-26T10:48:52;10.50;97.90
3262;DHT22;1643;47.746;9.000;2024-02-26T10:51:26;10.50;98.00
3262;DHT22;1643;47.746;9.000;2024-02-26T10:53:55;10.60;98.20
3262;DHT22;1643;47.746;9.000;2024-02-26T10:56:26;10.60;98.30
3262;DHT22;1643;47.746;9.000;2024-02-26T10:58:53;10.60;98.50
3262;DHT22;1643;47.746;9.000;2024-02-26T11:01:21;10.70;98.60
3262;DHT22;1643;47.746;9.000;2024-02-26T11:03:50;10.60;98.60
3262;DHT22;1643;47.746;9.000;2024-02-26T11:06:16;10.60;98.70
3262;DHT22;1643;47.746;9.000;2024-02-26T11:08:43;10.60;98.70
3262;DHT22;1643;47.746;9.000;2024-02-26T11:11:09;10.60;98.70
3262;DHT22;1643;47.746;9.000;2024-02-26T11:13:39;10.60;98.70
3262;DHT22;1643;47.746;9.000;2024-02-26T11:16:06;10.70;98.70
3262;DHT22;1643;47.746;9.000;2024-02-26T11:18:34;10.70;98.70
3262;DHT22;1643;47.746;9.000;2024-02-26T11:21:00;10.70;98.70
3262;DHT22;1643;47.746;9.000;2024-02-26T11:23:26;10.70;98.70
3262;DHT22;1643;47.746;9.000;2024-02-26T11:25:54;10.70;98.70
3262;DHT22;1643;47.746;9.000;2024-02-26T11:28:23;10.70;98.70
3262;DHT22;1643;47.746;9.000;2024-02-26T11:30:49;10.70;98.70
3262;DHT22;1643;47.746;9.000;2024-02-26T11:33:17;10.60;98.70
3262;DHT22;1643;47.746;9.000;2024-02-26T11:35:44;10.60;98.70
3262;DHT22;1643;47.746;9.000;2024-02-26T11:38:17;10.50;98.80
3262;DHT22;1643;47.746;9.000;2024-02-26T11:40:45;10.60;98.70
3262;DHT22;1643;47.746;9.000;2024-02-26T11:43:10;10.70;98.70
3262;DHT22;1643;47.746;9.000;2024-02-26T11:48:14;10.70;98.40
3262;DHT22;1643;47.746;9.000;2024-02-26T11:50:46;10.70;98.30
3262;DHT22;1643;47.746;9.000;2024-02-26T11:58:42;10.70;98.30
3262;DHT22;1643;47.746;9.000;2024-02-26T12:01:40;10.80;98.40
3262;DHT22;1643;47.746;9.000;2024-02-26T12:04:26;10.80;98.50
3262;DHT22;1643;47.746;9.000;2024-02-26T12:07:01;10.90;98.70
3262;DHT22;1643;47.746;9.000;2024-02-26T12:09:33;10.90;98.70
3262;DHT22;1643;47.746;9.000;2024-02-26T12:12:01;11.00;98.70
3262;DHT22;1643;47.746;9.000;2024-02-26T12:14:27;11.00;98.70
3262;DHT22;1643;47.746;9.000;2024-02-26T12:16:55;11.00;98.70
3262;DHT22;1643;47.746;9.000;2024-02-26T12:19:22;11.10;98.70
3262;DHT22;1643;47.746;9.000;2024-02-26T12:21:51;11.20;98.70
3262;DHT22;1643;47.746;9.000;2024-02-26T12:24:18;11.30;98.60
3262;DHT22;1643;47.746;9.000;2024-02-26T12:26:45;11.30;98.60
3262;DHT22;1643;47.746;9.000;2024-02-26T12:29:12;11.30;98.40
3262;DHT22;1643;47.746;9.000;2024-02-26T12:31:39;11.30;98.40
3262;DHT22;1643;47.746;9.000;2024-02-26T12:34:06;11.30;98.20
3262;DHT22;1643;47.746;9.000;2024-02-26T12:36:33;11.20;98.10
3262;DHT22;1643;47.746;9.000;2024-02-26T12:39:00;11.20;98.00
3262;DHT22;1643;47.746;9.000;2024-02-26T12:41:27;11.20;98.10
3262;DHT22;1643;47.746;9.000;2024-02-26T12:43:54;11.30;98.20
3262;DHT22;1643;47.746;9.000;2024-02-26T12:46:20;11.30;98.20
3262;DHT22;1643;47.746;9.000;2024-02-26T12:48:46;11.40;98.10
3262;DHT22;1643;47.746;9.000;2024-02-26T12:51:13;11.50;98.10
3262;DHT22;1643;47.746;9.000;2024-02-26T12:53:39;11.60;98.20
3262;DHT22;1643;47.746;9.000;2024-02-26T12:56:07;11.70;98.20
3262;DHT22;1643;47.746;9.000;2024-02-26T12:58:33;11.90;98.30
3262;DHT22;1643;47.746;9.000;2024-02-26T13:01:00;12.10;98.40
3262;DHT22;1643;47.746;9.000;2024-02-26T13:03:26;12.30;98.40
3262;DHT22;1643;47.746;9.000;2024-02-26T13:05:53;12.30;98.40
3262;DHT22;1643;47.746;9.000;2024-02-26T13:08:22;12.40;98.60
3262;DHT22;1643;47.746;9.000;2024-02-26T13:10:48;12.70;98.50
3262;DHT22;1643;47.746;9.000;2024-02-26T13:13:16;12.80;98.60
3262;DHT22;1643;47.746;9.000;2024-02-26T13:15:43;13.00;98.20
3262;DHT22;1643;47.746;9.000;2024-02-26T13:18:13;13.20;98.20
3262;DHT22;1643;47.746;9.000;2024-02-26T13:20:40;13.40;98.10
3262;DHT22;1643;47.746;9.000;2024-02-26T13:23:08;13.40;97.70
3262;DHT22;1643;47.746;9.000;2024-02-26T13:25:34;13.20;97.40
3262;DHT22;1643;47.746;9.000;2024-02-26T13:28:16;13.10;97.50
3262;DHT22;1643;47.746;9.000;2024-02-26T13:30:50;13.00;97.60
3262;DHT22;1643;47.746;9.000;2024-02-26T13:33:17;12.90;97.50
3262;DHT22;1643;47.746;9.000;2024-02-26T13:35:43;12.90;97.40
3262;DHT22;1643;47.746;9.000;2024-02-26T13:38:10;12.80;97.40
3262;DHT22;1643;47.746;9.000;2024-02-26T13:40:37;12.90;97.40
3262;DHT22;1643;47.746;9.000;2024-02-26T13:43:04;12.90;97.20
3262;DHT22;1643;47.746;9.000;2024-02-26T13:45:30;12.90;97.30
3262;DHT22;1643;47.746;9.000;2024-02-26T13:48:02;12.90;97.30
3262;DHT22;1643;47.746;9.000;2024-02-26T13:50:28;12.90;97.40
3262;DHT22;1643;47.746;9.000;2024-02-26T13:52:54;12.80;97.30
3262;DHT22;1643;47.746;9.000;2024-02-26T13:55:22;12.70;97.40
3262;DHT22;1643;47.746;9.000;2024-02-26T13:57:49;12.70;97.50
3262;DHT22;1643;47.746;9.000;2024-02-26T14:00:17;12.70;97.50
3262;DHT22;1643;47.746;9.000;2024-02-26T14:02:43;12.70;97.40
3262;DHT22;1643;47.746;9.000;2024-02-26T14:05:09;12.60;97.40
3262;DHT22;1643;47.746;9.000;2024-02-26T14:07:34;12.60;97.50
3262;DHT22;1643;47.746;9.000;2024-02-26T14:10:00;12.60;97.50
3262;DHT22;1643;47.746;9.000;2024-02-26T14:12:26;12.60;97.50
3262;DHT22;1643;47.746;9.000;2024-02-26T14:14:51;12.50;97.50
3262;DHT22;1643;47.746;9.000;2024-02-26T14:17:21;12.40;97.90
3262;DHT22;1643;47.746;9.000;2024-02-26T14:19:48;12.30;97.50
3262;DHT22;1643;47.746;9.000;2024-02-26T14:22:14;12.20;97.50
3262;DHT22;1643;47.746;9.000;2024-02-26T14:24:41;12.20;97.50
3262;DHT22;1643;47.746;9.000;2024-02-26T14:27:10;12.10;97.50
3262;DHT22;1643;47.746;9.000;2024-02-26T14:29:39;12.10;97.80
3262;DHT22;1643;47.746;9.000;2024-02-26T14:32:07;12.10;97.90
3262;DHT22;1643;47.746;9.000;2024-02-26T14:34:33;12.10;97.50
3262;DHT22;1643;47.746;9.000;2024-02-26T14:36:58;12.10;97.60
3262;DHT22;1643;47.746;9.000;2024-02-26T14:39:24;12.10;97.60
3262;DHT22;1643;47.746;9.000;2024-02-26T14:41:50;12.10;97.60
3262;DHT22;1643;47.746;9.000;2024-02-26T14:44:15;12.10;97.60
3262;DHT22;1643;47.746;9.000;2024-02-26T14:46:42;12.00;97.60
3262;DHT22;1643;47.746;9.000;2024-02-26T14:49:07;11.90;97.70
3262;DHT22;1643;47.746;9.000;2024-02-26T14:51:33;12.00;97.80
3262;DHT22;1643;47.746;9.000;2024-02-26T14:53:58;11.90;97.80
3262;DHT22;1643;47.746;9.000;2024-02-26T14:56:26;11.90;97.80
3262;DHT22;1643;47.746;9.000;2024-02-26T14:58:51;11.90;97.80
3262;DHT22;1643;47.746;9.000;2024-02-26T15:01:17;11.90;97.90
3262;DHT22;1643;47.746;9.000;2024-02-26T15:03:42;11.90;97.90
3262;DHT22;1643;47.746;9.000;2024-02-26T15:06:09;11.80;97.90
3262;DHT22;1643;47.746;9.000;2024-02-26T15:08:34;11.70;98.10
3262;DHT22;1643;47.746;9.000;2024-02-26T15:11:01;11.70;98.20
3262;DHT22;1643;47.746;9.000;2024-02-26T15:13:27;11.70;98.40
3262;DHT22;1643;47.746;9.000;2024-02-26T15:15:52;11.60;98.50
3262;DHT22;1643;47.746;9.000;2024-02-26T15:18:18;11.60;98.50
3262;DHT22;1643;47.746;9.000;2024-02-26T15:20:44;11.50;98.50
3262;DHT22;1643;47.746;9.000;2024-02-26T15:23:11;11.50;98.60
3262;DHT22;1643;47.746;9.000;2024-02-26T15:25:37;11.50;98.70
3262;DHT22;1643;47.746;9.000;2024-02-26T15:28:03;11.50;98.80
3262;DHT22;1643;47.746;9.000;2024-02-26T15:30:29;11.40;98.90
3262;DHT22;1643;47.746;9.000;2024-02-26T15:32:55;11.40;99.10
3262;DHT22;1643;47.746;9.000;2024-02-26T15:35:28;11.40;99.20
3262;DHT22;1643;47.746;9.000;2024-02-26T15:37:53;11.40;99.30
3262;DHT22;1643;47.746;9.000;2024-02-26T15:40:19;11.40;99.40
3262;DHT22;1643;47.746;9.000;2024-02-26T15:42:48;11.50;99.50
3262;DHT22;1643;47.746;9.000;2024-02-26T15:45:15;11.50;99.50
3262;DHT22;1643;47.746;9.000;2024-02-26T15:47:41;11.60;99.60
3262;DHT22;1643;47.746;9.000;2024-02-26T15:50:07;11.60;99.60
3262;DHT22;1643;47.746;9.000;2024-02-26T15:52:33;11.60;99.70
3262;DHT22;1643;47.746;9.000;2024-02-26T15:54:59;11.60;99.80
3262;DHT22;1643;47.746;9.000;2024-02-26T15:57:24;11.60;99.90
3262;DHT22;1643;47.746;9.000;2024-02-26T15:59:50;11.40;99.90
3262;DHT22;1643;47.746;9.000;2024-02-26T16:02:18;11.40;99.90
3262;DHT22;1643;47.746;9.000;2024-02-26T16:04:45;11.40;99.90
3262;DHT22;1643;47.746;9.000;2024-02-26T16:07:22;11.40;99.90
3262;DHT22;1643;47.746;9.000;2024-02-26T16:09:55;11.50;99.90
3262;DHT22;1643;47.746;9.000;2024-02-26T16:12:28;11.50;99.90
3262;DHT22;1643;47.746;9.000;2024-02-26T16:15:00;11.40;99.90